Time;durP1;ratioP1;P1;durP2;ratioP2;P2;SDS_P1;SDS_P2;PMS_P1;PMS_P2;Temp;Humidity;BMP_temperature;BMP_pressure;BME280_temperature;BME280_humidity;BME280_pressure;Samples;Min_cycle;Max_cycle;Signal;HPM_P1;HPM_P2
2024/01/15 00:01:27;;;;;;;7.47;0.43;;;;;;;-1.39;61.84;99561.75;4947854;28;20534;-69
2024/01/15 00:03:53;;;;;;;3.75;0.28;;;;;;;-1.07;61.25;99548.53;4898484;28;20124;-69
2024/01/15 00:06:19;;;;;;;6.00;0.45;;;;;;;-0.80;60.57;99547.31;4932781;28;20114;-69
2024/01/15 00:08:45;;;;;;;6.68;0.35;;;;;;;-1.38;62.28;99528.38;4907878;28;20038;-69
2024/01/15 00:11:10;;;;;;;8.95;0.70;;;;;;;-0.81;60.79;99519.13;4905529;28;20625;-70
2024/01/15 00:13:36;;;;;;;13.43;1.83;;;;;;;-0.95;61.43;99515.91;4927937;28;20046;-68
2024/01/15 00:16:02;;;;;;;4.78;0.32;;;;;;;-1.15;61.76;99506.75;4960213;28;20034;-68
2024/01/15 00:18:27;;;;;;;3.95;0.68;;;;;;;-0.79;61.58;99519.97;4960741;28;20584;-68
2024/01/15 00:20:53;;;;;;;4.75;0.73;;;;;;;-0.91;61.63;99504.75;4954464;28;20086;-68
2024/01/15 00:23:18;;;;;;;6.75;0.50;;;;;;;-1.08;62.25;99503.25;4969516;28;20066;-69
2024/01/15 00:25:44;;;;;;;10.57;0.50;;;;;;;-1.09;62.76;99519.47;4962236;28;20125;-69
2024/01/15 00:28:09;;;;;;;15.95;1.70;;;;;;;-1.17;63.21;99516.19;4967311;28;20038;-69
2024/01/15 00:30:34;;;;;;;10.80;0.68;;;;;;;-1.17;62.72;99521.31;4959203;28;20701;-71
2024/01/15 00:33:00;;;;;;;3.97;0.50;;;;;;;-1.27;62.79;99514.59;4970901;28;20042;-71
2024/01/15 00:35:25;;;;;;;2.80;0.22;;;;;;;-1.12;61.92;99514.41;4960973;28;20113;-73
2024/01/15 00:37:51;;;;;;;5.13;0.30;;;;;;;-1.04;60.99;99499.81;4957289;28;20030;-73
2024/01/15 00:40:16;;;;;;;8.65;0.40;;;;;;;-1.20;60.59;99500.84;4959977;28;20055;-71
2024/01/15 00:42:42;;;;;;;4.43;0.20;;;;;;;-0.90;60.19;99498.75;4958187;28;20041;-72
2024/01/15 00:45:08;;;;;;;5.22;0.47;;;;;;;-0.92;60.45;99503.91;4962081;28;20124;-72
2024/01/15 00:47:34;;;;;;;5.22;0.38;;;;;;;-1.12;60.99;99498.19;4961051;28;20068;-72
2024/01/15 00:50:00;;;;;;;5.90;0.30;;;;;;;-0.66;59.88;99488.13;4984178;28;20618;-72
2024/01/15 00:52:25;;;;;;;6.75;0.20;;;;;;;-0.73;59.53;99491.63;4962659;28;20618;-72
2024/01/15 00:54:51;;;;;;;4.57;0.85;;;;;;;-0.65;59.21;99489.81;4954995;28;20130;-72
2024/01/15 00:57:18;;;;;;;15.93;0.50;;;;;;;-0.64;59.74;99486.38;4959946;28;20042;-72
2024/01/15 00:59:44;;;;;;;5.78;0.30;;;;;;;-0.55;59.29;99480.22;4956809;28;20030;-72
2024/01/15 01:02:10;;;;;;;6.72;0.20;;;;;;;-1.05;60.25;99477.56;4977095;28;20413;-71
2024/01/15 01:04:35;;;;;;;16.35;0.98;;;;;;;-0.83;59.72;99482.41;4959244;28;20046;-72
2024/01/15 01:07:01;;;;;;;9.88;0.70;;;;;;;-0.75;59.53;99483.09;4955889;28;20664;-70
2024/01/15 01:09:29;;;;;;;15.60;0.50;;;;;;;-0.93;60.07;99476.53;4960437;28;20134;-72
2024/01/15 01:11:55;;;;;;;8.02;0.93;;;;;;;-0.98;59.50;99478.34;4958873;28;20034;-70
2024/01/15 01:14:21;;;;;;;4.25;0.45;;;;;;;-0.94;59.56;99474.03;4961884;28;20422;-70
2024/01/15 01:16:46;;;;;;;4.28;0.50;;;;;;;-0.69;58.43;99477.88;4956269;28;20588;-70
2024/01/15 01:19:12;;;;;;;5.57;0.30;;;;;;;-0.31;57.77;99476.41;4959947;28;20038;-70
2024/01/15 01:21:37;;;;;;;5.50;0.93;;;;;;;-0.50;57.87;99473.31;4962286;28;20039;-70
2024/01/15 01:24:03;;;;;;;12.77;1.20;;;;;;;-0.48;57.64;99460.44;4985738;28;20034;-70
2024/01/15 01:26:28;;;;;;;5.47;0.98;;;;;;;-0.42;57.74;99468.03;4985547;28;20035;-70
2024/01/15 01:28:54;;;;;;;6.25;0.65;;;;;;;-0.20;56.75;99455.66;4953533;28;20042;-73
2024/01/15 01:31:19;;;;;;;5.18;0.40;;;;;;;-0.63;57.77;99452.13;4961250;28;20552;-71
2024/01/15 01:33:45;;;;;;;10.70;1.23;;;;;;;-0.36;56.93;99449.97;4956817;28;20097;-70
2024/01/15 01:36:11;;;;;;;12.98;1.23;;;;;;;-0.37;56.84;99449.13;4954983;28;20049;-70
2024/01/15 01:38:37;;;;;;;9.13;0.95;;;;;;;-0.65;57.28;99441.03;4964084;28;20192;-70
2024/01/15 01:41:03;;;;;;;6.47;1.02;;;;;;;-0.52;57.31;99443.41;4983341;28;22643;-70
2024/01/15 01:43:28;;;;;;;14.25;1.27;;;;;;;-0.14;55.94;99448.69;4973105;28;20062;-69
2024/01/15 01:45:56;;;;;;;24.63;2.15;;;;;;;-0.18;55.95;99453.94;4955053;28;20509;-74
2024/01/15 01:48:25;;;;;;;11.27;0.68;;;;;;;-0.49;57.86;99454.47;4953757;28;20045;-74
2024/01/15 01:50:50;;;;;;;12.93;1.00;;;;;;;-0.29;57.75;99464.38;4950179;28;20042;-71
2024/01/15 01:53:16;;;;;;;15.32;0.95;;;;;;;-0.61;58.64;99468.34;4967700;28;20084;-73
2024/01/15 01:55:41;;;;;;;7.47;0.85;;;;;;;-0.42;59.17;99470.59;4960237;28;20066;-72
2024/01/15 01:58:07;;;;;;;6.60;0.68;;;;;;;-0.46;58.22;99461.25;4985346;28;20655;-75
2024/01/15 02:00:33;;;;;;;8.63;1.02;;;;;;;-0.48;57.86;99465.56;4967177;28;20050;-70
2024/01/15 02:02:59;;;;;;;6.43;0.55;;;;;;;-0.28;56.46;99463.53;4947748;28;20038;-72
2024/01/15 02:05:26;;;;;;;12.73;0.60;;;;;;;-0.64;57.06;99460.72;4963015;28;20027;-72
2024/01/15 02:07:52;;;;;;;10.50;1.38;;;;;;;-0.09;55.95;99465.75;4955775;28;20030;-66
2024/01/15 02:10:17;;;;;;;13.48;0.40;;;;;;;-0.24;56.55;99472.00;4991341;28;20038;-69
2024/01/15 02:12:43;;;;;;;4.25;0.55;;;;;;;-0.40;57.48;99459.44;4956011;28;21204;-71
2024/01/15 02:15:09;;;;;;;7.55;0.70;;;;;;;-0.26;57.33;99464.34;4961967;28;20505;-71
2024/01/15 02:17:34;;;;;;;15.98;0.63;;;;;;;-0.10;56.88;99461.47;4986546;28;20058;-71
2024/01/15 02:20:00;;;;;;;22.40;1.10;;;;;;;-0.51;58.35;99463.91;4958599;28;20046;-72
2024/01/15 02:22:25;;;;;;;10.13;0.93;;;;;;;-0.25;57.21;99453.19;4961002;28;20625;-71
2024/01/15 02:24:51;;;;;;;14.15;1.33;;;;;;;-0.09;56.90;99465.75;4947333;28;20482;-71
2024/01/15 02:27:17;;;;;;;12.52;1.73;;;;;;;-0.18;56.72;99454.75;4972017;28;20070;-70
2024/01/15 02:29:44;;;;;;;17.65;1.27;;;;;;;0.05;56.47;99453.47;4963112;28;20050;-68
2024/01/15 02:32:10;;;;;;;14.13;1.45;;;;;;;-0.08;56.05;99449.44;4982422;28;20603;-70
2024/01/15 02:34:36;;;;;;;14.85;2.08;;;;;;;0.34;54.81;99449.50;4973678;28;20054;-72
2024/01/15 02:37:02;;;;;;;10.07;0.75;;;;;;;0.05;55.22;99450.91;4948983;28;20556;-69
2024/01/15 02:39:28;;;;;;;13.90;1.15;;;;;;;0.21;54.07;99452.31;4962948;28;20035;-70
2024/01/15 02:41:56;;;;;;;11.50;1.17;;;;;;;-0.10;54.15;99446.06;4948423;28;20042;-70
2024/01/15 02:44:21;;;;;;;16.48;1.30;;;;;;;-0.28;53.28;99447.25;4956410;28;20568;-70
2024/01/15 02:46:47;;;;;;;11.18;1.10;;;;;;;0.31;52.18;99440.13;4958697;28;20034;-70
2024/01/15 02:49:12;;;;;;;16.42;1.92;;;;;;;0.22;51.61;99446.28;4945901;28;20067;-69
2024/01/15 02:51:38;;;;;;;17.98;1.33;;;;;;;0.30;50.92;99450.44;4958567;28;21065;-69
2024/01/15 02:54:03;;;;;;;18.02;1.40;;;;;;;0.37;50.52;99449.44;4943400;28;20178;-69
2024/01/15 02:56:29;;;;;;;14.88;1.15;;;;;;;0.61;49.85;99454.06;4959981;28;20034;-69
2024/01/15 02:58:55;;;;;;;17.75;1.45;;;;;;;0.72;49.86;99447.81;4953421;28;20650;-70
2024/01/15 03:01:20;;;;;;;19.17;1.10;;;;;;;0.84;49.55;99442.41;4957365;28;20563;-69
2024/01/15 03:03:46;;;;;;;11.77;1.42;;;;;;;0.75;49.54;99448.63;4953956;28;20042;-69
2024/01/15 03:06:11;;;;;;;13.05;1.42;;;;;;;0.53;50.08;99439.69;4947642;28;20129;-69
2024/01/15 03:08:37;;;;;;;14.00;1.05;;;;;;;0.61;49.73;99451.50;4974383;28;20085;-69
2024/01/15 03:11:02;;;;;;;12.23;1.73;;;;;;;0.65;50.40;99459.97;4951545;28;20066;-69
2024/01/15 03:13:28;;;;;;;8.45;1.35;;;;;;;0.36;50.88;99466.56;4952285;28;20027;-69
2024/01/15 03:15:53;;;;;;;17.52;2.38;;;;;;;0.18;51.80;99466.94;4947117;28;20050;-68
2024/01/15 03:18:19;;;;;;;16.70;0.55;;;;;;;-0.00;51.64;99463.00;4957236;28;20030;-68
2024/01/15 03:20:45;;;;;;;6.90;0.30;;;;;;;-0.35;52.40;99469.63;4959371;28;20053;-69
2024/01/15 03:23:10;;;;;;;9.80;0.30;;;;;;;-0.33;52.29;99467.88;4959069;28;20134;-69
2024/01/15 03:25:35;;;;;;;9.20;0.40;;;;;;;-0.28;51.83;99467.78;4959200;28;21042;-69
2024/01/15 03:28:01;;;;;;;11.82;0.85;;;;;;;-0.24;51.99;99465.13;4977233;28;20041;-69
2024/01/15 03:30:26;;;;;;;12.25;0.73;;;;;;;-0.25;52.60;99465.19;4954261;28;20402;-69
2024/01/15 03:32:52;;;;;;;9.70;0.40;;;;;;;-0.05;52.45;99473.38;4956067;28;20092;-73
2024/01/15 03:35:17;;;;;;;13.15;1.50;;;;;;;-0.29;53.49;99487.50;4977132;28;20067;-72
2024/01/15 03:37:43;;;;;;;12.18;1.48;;;;;;;-0.22;53.78;99483.94;4962387;28;20543;-72
2024/01/15 03:40:09;;;;;;;16.30;0.90;;;;;;;-0.45;53.67;99475.81;4954627;28;21387;-72
2024/01/15 03:42:34;;;;;;;3.92;0.30;;;;;;;-0.07;52.93;99482.81;4963596;28;20041;-72
2024/01/15 03:45:00;;;;;;;8.75;1.30;;;;;;;-0.20;54.18;99477.06;4988662;28;20038;-72
2024/01/15 03:47:26;;;;;;;11.25;1.02;;;;;;;-0.19;53.19;99472.75;4962569;28;20225;-72
2024/01/15 03:49:51;;;;;;;11.02;1.13;;;;;;;-0.01;52.50;99471.59;4953681;28;20177;-71
2024/01/15 03:52:17;;;;;;;7.70;0.80;;;;;;;-0.19;52.50;99477.88;4934039;28;20047;-72
2024/01/15 03:54:43;;;;;;;7.13;0.60;;;;;;;-0.33;52.54;99480.72;4947624;28;20612;-72
2024/01/15 03:57:08;;;;;;;16.60;1.55;;;;;;;-0.56;53.03;99479.38;4940577;28;20126;-72
2024/01/15 03:59:34;;;;;;;13.50;0.68;;;;;;;-0.19;52.27;99478.75;4923069;28;20488;-69
2024/01/15 04:01:59;;;;;;;4.80;0.40;;;;;;;-0.42;53.08;99475.75;4923969;28;20039;-71
2024/01/15 04:04:24;;;;;;;6.72;0.50;;;;;;;-0.17;52.44;99479.59;4949456;28;20816;-69
2024/01/15 04:06:50;;;;;;;8.00;0.70;;;;;;;-0.31;52.41;99475.56;4947130;28;20045;-71
2024/01/15 04:09:16;;;;;;;4.47;0.52;;;;;;;-0.25;52.52;99478.03;4946746;28;20042;-69
2024/01/15 04:11:42;;;;;;;12.20;0.77;;;;;;;-0.06;52.44;99474.22;4983373;28;20038;-69
2024/01/15 04:14:07;;;;;;;4.00;0.40;;;;;;;-0.24;52.98;99474.56;4946161;28;20528;-69
2024/01/15 04:16:32;;;;;;;6.53;0.43;;;;;;;0.21;51.98;99475.44;4961813;28;20585;-70
2024/01/15 04:18:58;;;;;;;5.97;0.45;;;;;;;-0.16;52.37;99473.56;4957119;28;20445;-70
2024/01/15 04:21:23;;;;;;;7.78;0.40;;;;;;;-0.31;53.01;99471.25;4958303;28;20477;-71
2024/01/15 04:23:49;;;;;;;9.73;0.68;;;;;;;0.25;52.19;99479.63;4956984;28;20519;-70
2024/01/15 04:26:14;;;;;;;4.82;0.50;;;;;;;0.35;52.31;99484.63;4954134;28;20597;-71
2024/01/15 04:28:40;;;;;;;12.80;1.38;;;;;;;0.46;52.08;99485.25;4959915;28;20034;-70
2024/01/15 04:31:05;;;;;;;10.40;1.10;;;;;;;0.23;52.63;99486.53;4955031;28;20037;-70
2024/01/15 04:33:31;;;;;;;6.57;0.50;;;;;;;0.11;53.37;99488.50;4961346;28;20115;-70
2024/01/15 04:35:56;;;;;;;5.97;0.60;;;;;;;-0.25;54.03;99499.41;4949397;28;20053;-71
2024/01/15 04:38:22;;;;;;;9.65;0.40;;;;;;;-0.17;54.46;99484.72;4956190;28;20042;-71
2024/01/15 04:40:47;;;;;;;5.13;0.40;;;;;;;0.14;52.45;99480.72;4989118;28;20041;-71
2024/01/15 04:43:13;;;;;;;3.30;1.17;;;;;;;-0.28;53.09;99471.22;4951935;28;20512;-71
2024/01/15 04:45:38;;;;;;;1.08;0.25;;;;;;;-0.50;53.13;99485.28;4959541;28;20162;-69
2024/01/15 04:48:04;;;;;;;5.15;0.10;;;;;;;-0.38;53.19;99482.53;4955569;28;20042;-68
2024/01/15 04:50:29;;;;;;;4.85;1.38;;;;;;;-0.35;53.30;99488.47;4956082;28;20053;-70
2024/01/15 04:52:55;;;;;;;3.47;0.10;;;;;;;-0.82;54.51;99481.50;4956664;28;20035;-71
2024/01/15 04:55:20;;;;;;;12.55;0.73;;;;;;;-0.39;53.81;99465.44;4940399;28;20066;-69
2024/01/15 04:57:46;;;;;;;1.60;0.25;;;;;;;-0.68;54.51;99464.19;4944728;28;20031;-71
2024/01/15 05:00:13;;;;;;;2.08;0.35;;;;;;;-0.76;53.91;99463.47;4936809;28;20453;-70
2024/01/15 05:02:38;;;;;;;6.60;0.50;;;;;;;-0.52;53.45;99457.09;4931323;28;20023;-71
2024/01/15 05:05:04;;;;;;;6.13;0.65;;;;;;;-0.69;53.07;99452.22;4950457;28;20065;-72
2024/01/15 05:07:29;;;;;;;10.27;0.20;;;;;;;-0.63;52.10;99441.88;4962502;28;20031;-72
2024/01/15 05:09:55;;;;;;;6.18;0.25;;;;;;;-0.48;51.42;99456.16;4962200;28;20034;-71
2024/01/15 05:12:20;;;;;;;4.03;0.10;;;;;;;-0.33;50.80;99462.75;4972748;28;20027;-72
2024/01/15 05:14:46;;;;;;;1.80;0.10;;;;;;;-0.39;51.80;99460.31;4960603;28;20046;-74
2024/01/15 05:17:11;;;;;;;9.50;0.63;;;;;;;-0.68;53.45;99451.38;4959583;28;20038;-71
2024/01/15 05:19:37;;;;;;;1.17;0.10;;;;;;;-0.76;53.51;99451.47;4956401;28;20035;-72
2024/01/15 05:22:02;;;;;;;1.90;0.20;;;;;;;-0.56;52.58;99448.59;4963384;28;20481;-72
2024/01/15 05:24:28;;;;;;;4.18;0.43;;;;;;;-0.37;52.79;99453.38;4923242;28;20223;-72
2024/01/15 05:26:53;;;;;;;6.35;0.20;;;;;;;-0.22;53.17;99453.13;4917400;28;20260;-71
2024/01/15 05:29:19;;;;;;;8.00;0.90;;;;;;;-0.73;54.11;99465.13;4888034;28;20110;-72
2024/01/15 05:31:45;;;;;;;4.07;0.60;;;;;;;-0.50;53.68;99482.72;4911413;28;20585;-71
2024/01/15 05:34:10;;;;;;;8.77;0.40;;;;;;;-0.61;54.61;99481.19;4890509;28;20081;-71
2024/01/15 05:36:36;;;;;;;7.95;1.02;;;;;;;-1.08;54.43;99477.59;4913603;28;20452;-72
2024/01/15 05:39:02;;;;;;;4.03;0.20;;;;;;;-1.13;54.59;99481.91;4955595;28;20034;-71
2024/01/15 05:41:28;;;;;;;3.20;0.20;;;;;;;-0.73;53.05;99465.97;4956561;28;20027;-73
2024/01/15 05:43:53;;;;;;;1.85;0.43;;;;;;;-0.84;53.54;99480.69;4973268;28;20041;-71
2024/01/15 05:46:19;;;;;;;0.35;0.00;;;;;;;-0.73;53.40;99491.63;4954861;28;20670;-71
2024/01/15 05:48:45;;;;;;;2.05;0.20;;;;;;;-1.15;55.16;99468.31;4967850;28;20572;-74
2024/01/15 05:51:10;;;;;;;6.95;0.30;;;;;;;-1.19;56.26;99466.66;4960265;28;20097;-73
2024/01/15 05:53:38;;;;;;;3.55;0.10;;;;;;;-0.79;55.40;99466.94;4972398;28;20035;-72
2024/01/15 05:56:03;;;;;;;5.95;0.50;;;;;;;-0.69;55.60;99475.31;4952961;28;20074;-71
2024/01/15 05:58:29;;;;;;;13.23;0.55;;;;;;;-1.26;58.39;99467.59;4954533;28;20061;-71
2024/01/15 06:00:54;;;;;;;5.38;0.22;;;;;;;-1.22;58.72;99462.41;4959798;28;20049;-70
2024/01/15 06:03:20;;;;;;;5.45;0.20;;;;;;;-1.07;58.34;99461.31;4949898;28;20647;-71
2024/01/15 06:05:46;;;;;;;3.83;0.50;;;;;;;-0.73;57.40;99465.13;4964891;28;20096;-70
2024/01/15 06:08:11;;;;;;;5.00;0.22;;;;;;;-0.51;56.68;99457.94;4951483;28;20054;-66
2024/01/15 06:10:36;;;;;;;9.20;0.52;;;;;;;-0.71;57.53;99456.53;4955634;28;20070;-68
2024/01/15 06:13:02;;;;;;;4.15;0.52;;;;;;;-1.03;57.14;99480.97;4961367;28;20041;-67
2024/01/15 06:15:28;;;;;;;3.38;0.22;;;;;;;-1.06;58.00;99478.47;4985772;28;20057;-67
2024/01/15 06:17:53;;;;;;;2.53;0.10;;;;;;;-1.47;59.29;99461.03;4957474;28;20608;-66
2024/01/15 06:20:19;;;;;;;3.95;0.40;;;;;;;-1.59;59.62;99457.75;4953508;28;20043;-67
2024/01/15 06:22:44;;;;;;;9.30;0.17;;;;;;;-1.07;58.32;99456.19;4955601;28;20034;-66
2024/01/15 06:25:10;;;;;;;4.40;0.20;;;;;;;-0.99;57.40;99449.28;4983511;28;20045;-65
2024/01/15 06:27:36;;;;;;;4.00;0.20;;;;;;;-1.12;57.25;99444.34;4961714;28;20070;-65
2024/01/15 06:30:01;;;;;;;9.55;0.20;;;;;;;-1.04;57.09;99451.06;4956197;28;20034;-66
2024/01/15 06:32:27;;;;;;;5.93;1.05;;;;;;;-1.03;55.90;99442.50;4950615;28;20037;-65
2024/01/15 06:34:53;;;;;;;6.18;0.60;;;;;;;-1.08;55.46;99438.28;4953997;28;20038;-65
2024/01/15 06:37:20;;;;;;;6.57;0.52;;;;;;;-0.93;55.05;99453.44;4949756;28;20378;-65
2024/01/15 06:39:45;;;;;;;10.40;0.50;;;;;;;-0.66;54.08;99443.63;4950981;28;20039;-66
2024/01/15 06:42:11;;;;;;;7.07;0.85;;;;;;;-0.25;53.03;99453.19;4981209;28;20560;-66
2024/01/15 06:44:36;;;;;;;8.15;0.45;;;;;;;-0.14;52.73;99461.53;4955783;28;20026;-64
2024/01/15 06:47:02;;;;;;;2.85;0.20;;;;;;;-0.45;54.18;99453.53;4954873;28;20632;-68
2024/01/15 06:49:29;;;;;;;6.57;0.50;;;;;;;-0.83;54.71;99464.44;4947631;28;20617;-66
2024/01/15 06:51:55;;;;;;;4.88;0.30;;;;;;;-0.94;55.87;99462.03;4956250;28;20518;-65
2024/01/15 06:54:21;;;;;;;4.88;1.25;;;;;;;-1.00;56.15;99467.25;4956651;28;20429;-65
2024/01/15 06:56:47;;;;;;;11.00;0.85;;;;;;;-0.89;56.00;99487.63;4956479;28;20030;-65
2024/01/15 06:59:12;;;;;;;8.27;1.33;;;;;;;-0.72;55.35;99501.03;4954469;28;20152;-67
2024/01/15 07:01:37;;;;;;;3.40;0.20;;;;;;;-0.76;55.28;99484.00;4959553;28;20186;-67
2024/01/15 07:04:03;;;;;;;10.32;0.98;;;;;;;-1.11;55.58;99487.88;4949298;28;20045;-67
2024/01/15 07:06:30;;;;;;;1.58;0.05;;;;;;;-1.03;55.22;99488.66;4957838;28;20026;-65
2024/01/15 07:08:56;;;;;;;3.05;0.08;;;;;;;-0.88;55.00;99487.59;4959723;28;20561;-65
2024/01/15 07:11:22;;;;;;;5.53;0.20;;;;;;;-1.16;56.03;99487.09;4974264;28;20046;-65
2024/01/15 07:13:47;;;;;;;4.30;0.15;;;;;;;-1.40;57.30;99471.19;4956464;28;20719;-66
2024/01/15 07:16:13;;;;;;;8.98;0.85;;;;;;;-0.89;56.27;99474.78;4945855;28;20128;-65
2024/01/15 07:18:39;;;;;;;4.85;0.65;;;;;;;-0.95;56.27;99485.13;4955461;28;20042;-65
2024/01/15 07:21:04;;;;;;;15.90;0.85;;;;;;;-0.78;55.83;99480.59;4965406;28;20121;-67
2024/01/15 07:23:31;;;;;;;2.80;0.30;;;;;;;-0.90;55.70;99483.38;4942155;28;20445;-66
2024/01/15 07:25:57;;;;;;;4.03;0.25;;;;;;;-0.70;55.03;99478.78;4958936;28;20042;-65
2024/01/15 07:28:22;;;;;;;13.18;0.25;;;;;;;-0.52;54.66;99481.91;4955581;28;20105;-68
2024/01/15 07:30:48;;;;;;;2.50;0.60;;;;;;;-0.46;54.69;99484.34;4956590;28;20120;-64
2024/01/15 07:33:13;;;;;;;6.68;0.43;;;;;;;-0.95;55.59;99492.81;4944416;28;20138;-65
2024/01/15 07:35:39;;;;;;;5.65;0.52;;;;;;;-0.88;55.26;99477.34;4952837;28;20038;-66
2024/01/15 07:38:04;;;;;;;11.18;0.52;;;;;;;-0.66;54.61;99479.56;4959965;28;20649;-65
2024/01/15 07:40:30;;;;;;;8.15;0.73;;;;;;;-0.48;54.06;99475.84;4952620;28;20045;-64
2024/01/15 07:42:55;;;;;;;5.38;1.23;;;;;;;-0.48;54.15;99475.84;4949918;28;20042;-65
2024/01/15 07:45:21;;;;;;;13.50;1.63;;;;;;;-0.46;54.21;99481.78;4954624;28;20045;-66
2024/01/15 07:47:46;;;;;;;5.80;0.98;;;;;;;-0.48;54.29;99476.72;4970811;28;20034;-65
2024/01/15 07:50:12;;;;;;;8.15;0.80;;;;;;;-0.63;54.45;99477.78;4952748;28;20089;-66
2024/01/15 07:52:41;;;;;;;16.63;0.70;;;;;;;-0.59;54.42;99484.56;4971622;28;20037;-67
2024/01/15 07:55:07;;;;;;;9.38;0.55;;;;;;;-0.51;54.34;99484.44;4958598;28;20055;-67
2024/01/15 07:57:33;;;;;;;10.45;0.80;;;;;;;-0.35;53.91;99487.59;4961434;28;20065;-64
2024/01/15 07:59:59;;;;;;;8.85;1.13;;;;;;;-0.45;54.27;99486.91;4959428;28;20470;-68
2024/01/15 08:02:24;;;;;;;7.43;0.88;;;;;;;-1.13;55.96;99492.19;4963793;28;20829;-65
2024/01/15 08:04:49;;;;;;;9.65;1.27;;;;;;;-0.69;54.64;99488.16;4956330;28;20578;-65
2024/01/15 08:07:15;;;;;;;4.93;0.45;;;;;;;-0.73;54.47;99496.75;4961852;28;20121;-65
2024/01/15 08:09:41;;;;;;;11.13;0.98;;;;;;;-0.88;54.52;99497.03;4953718;28;20572;-65
2024/01/15 08:12:07;;;;;;;7.50;1.27;;;;;;;-0.84;54.29;99508.91;4961583;28;20039;-66
2024/01/15 08:14:33;;;;;;;11.85;0.70;;;;;;;-0.81;54.13;99514.84;4957888;28;20056;-65
2024/01/15 08:16:58;;;;;;;3.10;0.20;;;;;;;-1.69;57.58;99509.13;4964485;28;20023;-66
2024/01/15 08:19:24;;;;;;;2.75;0.63;;;;;;;-1.16;56.80;99515.31;4942566;28;20452;-65
2024/01/15 08:21:49;;;;;;;6.30;0.40;;;;;;;-1.22;57.03;99513.69;4881870;28;20208;-65
2024/01/15 08:24:16;;;;;;;9.38;0.30;;;;;;;-1.23;57.42;99516.25;4901905;28;28434;-64
2024/01/15 08:26:42;;;;;;;1.83;0.10;;;;;;;-1.48;58.03;99508.03;4883090;28;20032;-64
2024/01/15 08:29:08;;;;;;;2.22;0.20;;;;;;;-1.87;58.93;99508.47;4915160;28;20054;-65
2024/01/15 08:31:34;;;;;;;4.70;0.20;;;;;;;-1.48;57.94;99519.13;4899126;28;20612;-65
2024/01/15 08:34:01;;;;;;;0.85;0.30;;;;;;;-1.28;57.07;99492.41;4922537;28;20070;-64
2024/01/15 08:36:29;;;;;;;4.60;0.30;;;;;;;-1.50;56.88;99495.25;4950779;28;20126;-66
2024/01/15 08:38:55;;;;;;;7.47;0.47;;;;;;;-0.89;55.72;99505.56;4951365;28;20050;-66
2024/01/15 08:41:20;;;;;;;0.50;0.13;;;;;;;-0.80;54.91;99498.56;4952043;28;20035;-65
2024/01/15 08:43:46;;;;;;;4.47;0.10;;;;;;;-0.80;54.85;99503.69;4969053;28;20045;-65
2024/01/15 08:46:11;;;;;;;3.28;0.25;;;;;;;-0.89;54.15;99508.13;4953669;28;20042;-65
2024/01/15 08:48:37;;;;;;;1.20;0.03;;;;;;;-0.93;54.14;99509.03;4925543;28;20089;-66
2024/01/15 08:51:02;;;;;;;0.77;0.00;;;;;;;-1.72;55.41;99491.25;4969349;28;20046;-64
2024/01/15 08:53:28;;;;;;;3.75;0.22;;;;;;;-1.31;54.34;99502.69;4952948;28;20049;-67
2024/01/15 08:55:54;;;;;;;3.13;0.30;;;;;;;-0.82;53.13;99497.75;4948252;28;20106;-65
2024/01/15 08:58:19;;;;;;;1.80;0.13;;;;;;;-0.82;53.35;99502.03;4952302;28;20039;-67
2024/01/15 09:00:45;;;;;;;3.53;0.20;;;;;;;-0.99;53.90;99505.72;4968782;28;20030;-66
2024/01/15 09:03:10;;;;;;;1.48;0.10;;;;;;;-0.98;54.24;99512.50;4986814;28;20034;-65
2024/01/15 09:05:36;;;;;;;4.00;0.35;;;;;;;-0.95;54.31;99505.66;4965309;28;20085;-65
2024/01/15 09:08:01;;;;;;;3.63;0.10;;;;;;;-1.14;55.10;99499.91;4954897;28;20117;-65
2024/01/15 09:10:27;;;;;;;4.38;0.57;;;;;;;-0.77;53.88;99497.69;4947643;28;20041;-65
2024/01/15 09:12:52;;;;;;;0.60;0.20;;;;;;;-1.09;55.02;99498.97;4961942;28;20026;-65
2024/01/15 09:15:17;;;;;;;3.38;0.10;;;;;;;-0.82;54.58;99504.59;4949562;28;20039;-65
2024/01/15 09:17:43;;;;;;;7.20;0.77;;;;;;;-0.72;55.11;99497.63;4958129;28;20038;-65
2024/01/15 09:20:09;;;;;;;2.58;0.10;;;;;;;-1.12;55.83;99509.28;4953012;28;20043;-65
2024/01/15 09:22:35;;;;;;;2.28;0.20;;;;;;;-0.66;55.20;99518.91;4950101;28;20044;-65
2024/01/15 09:25:01;;;;;;;1.63;0.20;;;;;;;-0.83;55.62;99524.28;4953432;28;20039;-66
2024/01/15 09:27:26;;;;;;;4.07;0.45;;;;;;;-1.45;58.07;99516.53;4953098;28;20050;-64
2024/01/15 09:29:55;;;;;;;3.95;0.63;;;;;;;-1.74;58.68;99513.47;4952180;28;20171;-68
2024/01/15 09:32:21;;;;;;;4.43;0.25;;;;;;;-1.18;57.62;99512.75;4950764;28;20054;-68
2024/01/15 09:34:46;;;;;;;4.57;0.77;;;;;;;-1.27;58.08;99509.47;4928077;28;20241;-65
2024/01/15 09:37:14;;;;;;;4.78;0.30;;;;;;;-1.16;58.11;99523.00;4886400;28;20046;-65
2024/01/15 09:39:40;;;;;;;3.38;0.47;;;;;;;-1.33;57.74;99517.25;4905836;28;20034;-67
2024/01/15 09:42:07;;;;;;;3.30;0.20;;;;;;;-1.80;59.15;99530.59;4881249;28;20413;-65
2024/01/15 09:44:34;;;;;;;1.80;0.20;;;;;;;-1.27;58.31;99530.81;4890121;28;20081;-65
2024/01/15 09:47:00;;;;;;;2.35;0.30;;;;;;;-1.45;59.08;99534.47;4896517;28;20329;-66
2024/01/15 09:49:25;;;;;;;5.97;0.30;;;;;;;-1.36;58.67;99540.34;4951974;28;20042;-66
2024/01/15 09:51:51;;;;;;;5.55;0.30;;;;;;;-1.46;59.43;99537.91;4968015;28;20109;-65
2024/01/15 09:54:17;;;;;;;2.63;0.20;;;;;;;-1.50;59.20;99530.28;4955064;28;20576;-66
2024/01/15 09:56:49;;;;;;;1.30;0.20;;;;;;;-1.49;59.16;99537.09;4984458;28;20113;-65
2024/01/15 09:59:18;;;;;;;;;;;;;;;-1.14;58.88;99546.91;4952365;28;20046;-65
2024/01/15 10:01:44;;;;;;;11.77;0.80;;;;;;;-1.08;58.53;99541.72;4949483;28;19972;-65
2024/01/15 10:04:12;;;;;;;4.35;1.13;;;;;;;-0.85;58.35;99543.97;4943603;28;20132;-65
2024/01/15 10:06:42;;;;;;;2.58;0.43;;;;;;;-0.76;57.84;99538.72;4951195;28;20823;-65
2024/01/15 10:09:07;;;;;;;7.25;0.25;;;;;;;-1.08;58.53;99551.97;4953722;28;20045;-65
2024/01/15 10:11:33;;;;;;;3.72;0.77;;;;;;;-1.86;60.00;99556.28;4952503;28;20094;-64
2024/01/15 10:13:59;;;;;;;4.53;0.38;;;;;;;-1.46;58.32;99560.97;4960234;28;20588;-65
2024/01/15 10:16:25;;;;;;;2.53;0.28;;;;;;;-1.68;59.04;99570.59;4951803;28;20038;-65
2024/01/15 10:18:51;;;;;;;7.82;0.70;;;;;;;-1.53;58.77;99571.28;4952759;28;20534;-66
2024/01/15 10:21:17;;;;;;;2.17;0.20;;;;;;;-1.93;60.38;99564.88;4954404;28;20635;-65
2024/01/15 10:23:42;;;;;;;2.95;0.30;;;;;;;-2.07;60.42;99565.03;4951752;28;20022;-67
2024/01/15 10:26:08;;;;;;;4.47;0.10;;;;;;;-2.00;60.07;99552.97;4952392;28;20413;-65
2024/01/15 10:28:33;;;;;;;0.30;0.20;;;;;;;-1.81;59.81;99546.81;4950241;28;20066;-64
2024/01/15 10:31:02;;;;;;;2.75;0.10;;;;;;;-1.67;59.35;99545.84;4950120;28;20229;-65
2024/01/15 10:33:27;;;;;;;0.20;0.00;;;;;;;-2.17;60.84;99552.31;4950926;28;20145;-66
2024/01/15 10:35:55;;;;;;;5.57;0.10;;;;;;;-1.74;60.09;99551.88;4949266;28;20048;-65
2024/01/15 10:38:24;;;;;;;3.20;0.10;;;;;;;-1.63;59.93;99544.94;4952973;28;20417;-65
2024/01/15 10:40:54;;;;;;;3.15;0.30;;;;;;;-1.66;59.91;99532.16;4952416;28;20049;-66
2024/01/15 10:43:20;;;;;;;0.40;0.10;;;;;;;-1.52;59.86;99530.28;4964283;28;20445;-66
2024/01/15 10:45:47;;;;;;;3.47;0.10;;;;;;;-1.21;59.18;99530.75;4951909;28;20118;-65
2024/01/15 10:48:13;;;;;;;0.45;0.10;;;;;;;-1.03;58.54;99524.56;4953963;28;20046;-66
2024/01/15 10:50:39;;;;;;;3.10;0.10;;;;;;;-0.85;58.10;99523.47;4914885;28;20055;-65
2024/01/15 10:53:05;;;;;;;4.32;0.88;;;;;;;-0.74;57.94;99510.47;4872429;28;20089;-66
2024/01/15 10:55:33;;;;;;;3.13;0.35;;;;;;;-0.85;57.74;99520.88;4873467;28;20047;-68
2024/01/15 10:58:00;;;;;;;0.60;0.30;;;;;;;-1.11;58.27;99515.25;4876524;28;20038;-66
2024/01/15 11:00:27;;;;;;;1.98;0.10;;;;;;;-1.04;58.12;99528.00;4873863;28;20237;-65
2024/01/15 11:02:56;;;;;;;2.92;0.10;;;;;;;-1.38;59.36;99522.44;4915826;28;20395;-66
2024/01/15 11:05:22;;;;;;;1.38;0.28;;;;;;;-1.77;60.56;99518.63;4954954;28;20038;-68
2024/01/15 11:07:55;;;;;;;2.55;0.10;;;;;;;-1.27;59.60;99520.56;4957240;28;20042;-67
2024/01/15 11:10:52;;;;;;;0.95;0.10;;;;;;;-1.53;59.82;99522.59;4953910;28;20066;-68
2024/01/15 11:13:32;;;;;;;2.40;0.20;;;;;;;-0.96;58.68;99525.31;4946183;28;20925;-68
2024/01/15 11:16:08;;;;;;;5.80;0.10;;;;;;;-0.98;58.37;99533.03;4943961;28;20074;-67
2024/01/15 11:18:37;;;;;;;0.10;0.00;;;;;;;-0.74;57.64;99520.75;4951620;28;20715;-65
2024/01/15 11:21:18;;;;;;;1.35;0.03;;;;;;;-1.10;59.14;99528.06;4952134;28;20042;-65
2024/01/15 11:23:49;;;;;;;0.38;0.00;;;;;;;-1.15;59.08;99524.72;4948439;28;20085;-65
2024/01/15 11:26:31;;;;;;;1.08;0.10;;;;;;;-1.54;60.16;99519.19;4945990;28;20046;-68